CYZU

Whitecourt Airport

Whitecourt, Alberta, Canada
METAR CYZU 170500Z 10009KT 15SM SCT150 M12/M14 A2964 RMK AC4 FROIN LAST STFD OBS/NEXT 171300Z PRESFR SLP094
Observed Flight Rules
Dec-17 @ 05:00 UTC (7 hours ago) Visual Flight Rules
Wind Visibility Clouds
100° at 9 knots 15 miles
  • Scattered at 15,000' AGL
Temperatures Readings
Current -12°C / 10°F
Dewpoint -14°C / 7°F
Humidity 85%
Altimeter 29.64" Hg
Pressure 1009.4 hPa
Elevation 785
METAR CYZU 170500Z 10009KT 15SM SCT150 M12/M14 A2964 RMK AC4 FROIN LAST STFD OBS/NEXT 171300Z PRESFR SLP094
Observed Flight Rules
Dec-17 @ 05:00 UTC
(7 hours ago)
VFR
Wind Visibility
100° at 9 knots 15 miles
Clouds
  • Scattered at 15,000' AGL
Temperature Dewpoint
-12°C / 10°F -14°C / 7°F
Humidity Altimeter Pressure
85% 29.64" Hg 1009.4 hPa